首页
METAR-TAF:

METAR-TAF

机场 :

埃德蒙顿国际机场

埃德蒙顿, 艾伯塔, 加拿大

纬度: 53-18N, 经度: 113-35W, 海拔: 715米

当前天气观测

该预报发布于1小时和9分钟前的04:00 UTC
风速8节,风向
温度 10°C
湿度 57%
气压 1005 hPa
能見度: 32.2公里
少量云层高于6000英尺
少量云层高于15000英尺
少量云层高于25000英尺

METAR: CYEG 250400Z 10008KT 20SM FEW060 FEW150 FEW250 10/02 A2967 RMK SC1AC1CI1 SC TR AC TR CONTRAILS SLP060 DENSITY ALT 2700FT

时间: 23:09 (05:09 UTC)

预报

该预报发布于2小时和29分钟前的02:40 UTC
预报有效从25日的 03点(UTC)到 25日的 24点(UTC)
风速5节,风向东转东北
能見度: 10公里
散云层高于6000英尺
短暂存在
从 25日的 06点(UTC)到 25日的 20点(UTC)
多云层高于6000英尺
成为
从 25日的 06点(UTC)到 25日的 08点(UTC)
风速8节,风向东转东南
从 25日的 2000点(UTC)
风速10节,风向东转东南
能見度: 10公里
散云层高于4000英尺
阴天层高于8000英尺
短暂存在
从 25日的 20点(UTC)到 25日的 24点(UTC)
能見度: 10公里
多云层高于4000英尺
多云层高于8000英尺
小阵雨
几率 40%
从 25日的 22点(UTC)到 25日的 24点(UTC)
风速20节,风向多变,有时为30节阵风
能見度: 6.4公里
多云层高于3000英尺, 积雨云.
雷暴, 雨

TAF: CYEG 250240Z 2503/2524 07005KT P6SM SCT060 TEMPO 2506/2520 BKN060 BECMG 2506/2508 11008KT FM252000 12010KT P6SM SCT040 OVC080 TEMPO 2520/2524 P6SM -SHRA BKN040 BKN080 PROB40 2522/2524 VRB20G30KT 4SM TSRA BKN030CB RMK NXT FCST BY 250600Z

超过4000个机场的气象观测和天气预报(METAR&TAF报告)。

可查询的气象台以黄色和红色小点在地图上表示。

将鼠标移到小点上方,可查看气象台名称。

然后点击查看天气观测和预报。

如需切换地图:点击带黑十字的绿色按钮放大地图;点击带横线的绿色按钮缩小地图;或者点击绿色箭头查看邻近地区的地图。


METAR-TAF: